createdAt,value
2018-11-01T00:02:16.218Z,11.06
2018-11-01T00:04:44.558Z,11.08
2018-11-01T00:07:12.869Z,11.11
2018-11-01T00:09:41.178Z,11.15
2018-11-01T00:12:09.557Z,11.19
2018-11-01T00:14:37.862Z,11.21
2018-11-01T00:17:06.841Z,11.21
2018-11-01T00:19:35.234Z,11.24
2018-11-01T00:22:03.763Z,11.26
2018-11-01T00:24:32.116Z,11.30
2018-11-01T00:27:00.425Z,11.31
2018-11-01T00:29:28.749Z,11.29
2018-11-01T00:31:57.161Z,11.29
2018-11-01T00:34:25.613Z,11.31
2018-11-01T00:36:53.996Z,11.37
2018-11-01T00:39:22.501Z,11.42
2018-11-01T00:41:50.896Z,11.43
2018-11-01T00:44:19.224Z,11.45
2018-11-01T00:46:47.781Z,11.43
2018-11-01T00:49:16.776Z,11.43
2018-11-01T00:51:45.073Z,11.42
2018-11-01T00:54:13.483Z,11.39
2018-11-01T00:56:41.840Z,11.37
2018-11-01T00:59:10.214Z,11.36
2018-11-01T01:01:38.531Z,11.34
2018-11-01T01:04:06.857Z,11.33
2018-11-01T01:06:35.359Z,11.36
2018-11-01T01:09:04.936Z,11.40
2018-11-01T01:11:33.223Z,11.48
2018-11-01T01:14:01.699Z,11.57
2018-11-01T01:16:30.027Z,11.61
2018-11-01T01:18:58.438Z,11.63
2018-11-01T01:21:26.653Z,11.62
2018-11-01T01:23:55.061Z,11.61
2018-11-01T01:26:23.425Z,11.56
2018-11-01T01:28:51.774Z,11.61
2018-11-01T01:31:20.370Z,11.67
2018-11-01T01:33:48.738Z,11.73
2018-11-01T01:36:17.114Z,11.75
2018-11-01T01:38:45.509Z,11.77
2018-11-01T01:41:13.990Z,11.79
2018-11-01T01:43:42.417Z,11.86
2018-11-01T01:46:10.734Z,11.91
2018-11-01T01:48:39.041Z,11.93
2018-11-01T01:51:07.386Z,11.89
2018-11-01T01:53:35.815Z,11.83
2018-11-01T01:56:04.273Z,11.79
2018-11-01T01:58:32.718Z,11.75
2018-11-01T02:01:01.305Z,11.70
2018-11-01T02:03:29.605Z,11.66
2018-11-01T02:05:57.881Z,11.63
2018-11-01T02:08:26.217Z,11.62
2018-11-01T02:10:54.505Z,11.60
2018-11-01T02:13:23.001Z,11.60
2018-11-01T02:15:51.486Z,11.62
2018-11-01T02:18:19.854Z,11.69
2018-11-01T02:20:48.298Z,11.73
2018-11-01T02:23:16.641Z,11.75
2018-11-01T02:25:44.997Z,11.75
2018-11-01T02:28:14.832Z,11.73
2018-11-01T02:30:43.202Z,11.71
2018-11-01T02:33:11.740Z,11.70
2018-11-01T02:35:40.118Z,11.72
2018-11-01T02:38:08.578Z,11.76
2018-11-01T02:40:36.751Z,11.79
2018-11-01T02:43:05.403Z,11.88
2018-11-01T02:45:33.817Z,11.91
2018-11-01T02:48:02.346Z,11.90
2018-11-01T02:50:30.661Z,11.92
2018-11-01T02:52:59.025Z,11.92
2018-11-01T02:55:27.375Z,11.91
2018-11-01T02:57:55.754Z,11.94
2018-11-01T03:00:24.197Z,11.94
2018-11-01T03:02:52.611Z,11.95
2018-11-01T03:05:21.095Z,12.06
2018-11-01T03:07:49.511Z,12.27
2018-11-01T03:10:17.798Z,12.41
2018-11-01T03:12:46.144Z,12.40
2018-11-01T03:15:15.324Z,12.33
2018-11-01T03:17:43.673Z,12.25
2018-11-01T03:20:12.579Z,12.20
2018-11-01T03:22:41.288Z,12.23
2018-11-01T03:25:10.161Z,12.27
2018-11-01T03:27:38.820Z,12.29
2018-11-01T03:30:07.723Z,12.32
2018-11-01T03:32:36.311Z,12.30
2018-11-01T03:35:04.825Z,12.26
2018-11-01T03:37:33.242Z,12.19
2018-11-01T03:40:01.571Z,12.14
2018-11-01T03:42:30.088Z,12.12
2018-11-01T03:44:58.406Z,12.08
2018-11-01T03:47:26.778Z,12.05
2018-11-01T03:49:55.176Z,12.01
2018-11-01T03:52:23.870Z,12.00
2018-11-01T03:54:52.354Z,12.00
2018-11-01T03:57:20.826Z,12.00
2018-11-01T03:59:49.271Z,12.03
2018-11-01T04:02:17.530Z,12.03
2018-11-01T04:04:45.852Z,12.01
2018-11-01T04:07:14.163Z,12.04
2018-11-01T04:09:42.757Z,12.15
2018-11-01T04:12:11.087Z,12.26
2018-11-01T04:14:39.494Z,12.35
2018-11-01T04:17:07.940Z,12.39
2018-11-01T04:19:36.334Z,12.40
2018-11-01T04:22:06.566Z,12.39
2018-11-01T04:24:36.210Z,12.37
2018-11-01T04:27:04.940Z,12.33
2018-11-01T04:29:34.292Z,12.27
2018-11-01T04:32:02.871Z,12.19
2018-11-01T04:34:31.309Z,12.17
2018-11-01T04:36:59.625Z,12.14
2018-11-01T04:39:28.160Z,12.05
2018-11-01T04:41:56.581Z,11.93
2018-11-01T04:44:24.919Z,11.81
2018-11-01T04:46:53.207Z,11.71
2018-11-01T04:49:21.667Z,11.63
2018-11-01T04:51:50.862Z,11.59
2018-11-01T04:54:19.170Z,11.60
2018-11-01T04:56:47.552Z,11.62
2018-11-01T04:59:15.957Z,11.65
2018-11-01T05:01:44.293Z,11.73
2018-11-01T05:04:12.557Z,11.75
2018-11-01T05:06:41.159Z,11.78
2018-11-01T05:09:09.407Z,11.81
2018-11-01T05:11:37.722Z,11.86
2018-11-01T05:14:06.146Z,11.89
2018-11-01T05:16:34.553Z,11.86
2018-11-01T05:19:02.946Z,11.84
2018-11-01T05:21:31.230Z,11.80
2018-11-01T05:24:01.471Z,11.75
2018-11-01T05:26:30.885Z,11.67
2018-11-01T05:28:59.341Z,11.62
2018-11-01T05:31:27.721Z,11.56
2018-11-01T05:33:56.034Z,11.55
2018-11-01T05:36:24.401Z,11.56
2018-11-01T05:38:52.818Z,11.58
2018-11-01T05:41:21.235Z,11.59
2018-11-01T05:43:49.746Z,11.56
2018-11-01T05:46:18.038Z,11.52
2018-11-01T05:48:46.497Z,11.49
2018-11-01T05:51:14.865Z,11.47
2018-11-01T05:53:43.217Z,11.43
2018-11-01T05:56:11.493Z,11.35
2018-11-01T05:58:39.933Z,11.23
2018-11-01T06:01:11.618Z,11.12
2018-11-01T06:03:40.517Z,11.03
2018-11-01T06:06:08.901Z,11.01
2018-11-01T06:08:40.359Z,10.99
2018-11-01T06:11:08.720Z,10.99
2018-11-01T06:13:36.969Z,10.98
2018-11-01T06:16:06.125Z,10.98
2018-11-01T06:18:34.682Z,10.98
2018-11-01T06:21:03.083Z,11.00
2018-11-01T06:23:31.441Z,11.04
2018-11-01T06:25:59.854Z,11.08
2018-11-01T06:28:28.278Z,11.05
2018-11-01T06:30:56.681Z,11.02
2018-11-01T06:33:25.094Z,10.96
2018-11-01T06:35:56.432Z,10.91
2018-11-01T06:38:24.797Z,10.86
2018-11-01T06:40:53.202Z,10.80
2018-11-01T06:43:21.546Z,10.84
2018-11-01T06:45:50.061Z,10.86
2018-11-01T06:48:18.663Z,10.88
2018-11-01T06:50:47.001Z,10.89
2018-11-01T06:53:15.547Z,10.91
2018-11-01T06:55:44.207Z,10.92
2018-11-01T06:58:12.578Z,10.90
2018-11-01T07:00:41.010Z,10.91
2018-11-01T07:03:09.514Z,10.94
2018-11-01T07:05:37.904Z,10.97
2018-11-01T07:08:06.359Z,11.00
2018-11-01T07:10:34.771Z,11.02
2018-11-01T07:13:03.107Z,11.04
2018-11-01T07:15:31.485Z,11.07
2018-11-01T07:17:59.995Z,11.08
2018-11-01T07:20:28.462Z,11.04
2018-11-01T07:22:56.846Z,11.07
2018-11-01T07:25:25.347Z,11.11
2018-11-01T07:27:53.593Z,11.13
2018-11-01T07:30:21.882Z,11.16
2018-11-01T07:32:50.340Z,11.20
2018-11-01T07:35:18.630Z,11.20
2018-11-01T07:37:47.610Z,11.23
2018-11-01T07:40:17.374Z,11.27
2018-11-01T07:42:45.727Z,11.30
2018-11-01T07:45:14.558Z,11.32
2018-11-01T07:47:43.869Z,11.31
2018-11-01T07:50:13.262Z,11.29
2018-11-01T07:52:42.192Z,11.27
2018-11-01T07:55:12.585Z,11.25
2018-11-01T07:57:41.189Z,11.24
2018-11-01T08:00:12.006Z,11.22
2018-11-01T08:02:40.813Z,11.21
2018-11-01T08:05:10.450Z,11.23
2018-11-01T08:07:38.982Z,11.28
2018-11-01T08:10:10.247Z,11.32
2018-11-01T08:12:38.644Z,11.33
2018-11-01T08:15:09.645Z,11.36
2018-11-01T08:17:38.000Z,11.37
2018-11-01T08:20:07.885Z,11.38
2018-11-01T08:22:36.046Z,11.40
2018-11-01T08:25:04.478Z,11.44
2018-11-01T08:27:33.066Z,11.51
2018-11-01T08:30:01.608Z,11.57
2018-11-01T08:32:30.304Z,11.61
2018-11-01T08:34:58.649Z,11.68
2018-11-01T08:37:27.034Z,11.73
2018-11-01T08:39:55.440Z,11.78
2018-11-01T08:42:25.024Z,11.79
2018-11-01T08:44:53.397Z,11.79
2018-11-01T08:47:21.763Z,11.78
2018-11-01T08:49:50.150Z,11.79
2018-11-01T08:52:18.538Z,11.79
2018-11-01T08:54:46.938Z,11.81
2018-11-01T08:57:15.310Z,11.82
2018-11-01T08:59:50.287Z,11.87
2018-11-01T09:02:18.704Z,11.93
2018-11-01T09:04:47.245Z,12.01
2018-11-01T09:07:15.613Z,12.12
2018-11-01T09:09:43.894Z,12.21
2018-11-01T09:12:12.435Z,12.30
2018-11-01T09:14:40.894Z,12.35
2018-11-01T09:17:09.178Z,12.37
2018-11-01T09:19:37.546Z,12.36
2018-11-01T09:22:05.892Z,12.38
2018-11-01T09:24:34.177Z,12.37
2018-11-01T09:27:02.648Z,12.37
2018-11-01T09:29:30.815Z,12.39
2018-11-01T09:31:59.134Z,12.44
2018-11-01T09:34:27.510Z,12.48
2018-11-01T09:36:55.923Z,12.52
2018-11-01T09:39:24.259Z,12.59
2018-11-01T09:41:52.566Z,12.65
2018-11-01T09:44:21.086Z,12.71
2018-11-01T09:46:49.818Z,12.77
2018-11-01T09:49:17.758Z,12.86
2018-11-01T09:51:46.099Z,12.93
2018-11-01T09:54:14.423Z,12.99
2018-11-01T09:56:42.722Z,13.03
2018-11-01T09:59:11.507Z,13.07
2018-11-01T10:01:40.014Z,13.15
2018-11-01T10:04:08.942Z,13.25
2018-11-01T10:06:37.291Z,13.29
2018-11-01T10:09:07.443Z,13.35
2018-11-01T10:11:35.987Z,13.39
2018-11-01T10:14:04.394Z,13.45
2018-11-01T10:16:32.842Z,13.49
2018-11-01T10:19:01.115Z,13.54
2018-11-01T10:21:29.535Z,13.64
2018-11-01T10:23:57.759Z,13.75
2018-11-01T10:26:26.120Z,13.82
2018-11-01T10:28:54.515Z,13.89
2018-11-01T10:31:26.250Z,14.02
2018-11-01T10:33:54.714Z,14.14
2018-11-01T10:36:23.327Z,14.29
2018-11-01T10:38:51.705Z,14.48
2018-11-01T10:41:19.979Z,14.66
2018-11-01T10:43:48.372Z,14.77
2018-11-01T10:46:16.663Z,14.92
2018-11-01T10:48:45.015Z,15.02
2018-11-01T10:51:13.412Z,15.11
2018-11-01T10:53:41.816Z,15.26
2018-11-01T10:56:10.150Z,15.49
2018-11-01T10:58:38.567Z,15.60
2018-11-01T11:01:12.331Z,15.62
2018-11-01T11:03:40.547Z,15.65
2018-11-01T11:06:09.162Z,15.71
2018-11-01T11:08:37.559Z,15.73
2018-11-01T11:11:05.994Z,15.74
2018-11-01T11:13:34.596Z,15.80
2018-11-01T11:16:03.021Z,15.63
2018-11-01T11:18:31.339Z,15.48
2018-11-01T11:20:59.876Z,15.30
2018-11-01T11:23:28.035Z,15.04
2018-11-01T11:25:56.445Z,14.89
2018-11-01T11:28:24.746Z,14.76
2018-11-01T11:30:53.149Z,14.67
2018-11-01T11:33:21.685Z,14.64
2018-11-01T11:35:50.038Z,14.62
2018-11-01T11:38:18.321Z,14.57
2018-11-01T11:40:46.722Z,14.48
2018-11-01T11:43:15.054Z,14.46
2018-11-01T11:45:43.331Z,14.46
2018-11-01T11:48:11.845Z,14.43
2018-11-01T11:50:40.191Z,14.49
2018-11-01T11:53:08.581Z,14.56
2018-11-01T11:55:36.989Z,14.63
2018-11-01T11:58:05.337Z,14.61
2018-11-01T12:00:33.740Z,14.55
2018-11-01T12:03:02.318Z,14.54
2018-11-01T12:05:30.737Z,14.57
2018-11-01T12:07:59.054Z,14.65
2018-11-01T12:10:27.487Z,14.94
2018-11-01T12:12:55.784Z,15.13
2018-11-01T12:15:24.158Z,15.14
2018-11-01T12:17:52.473Z,15.01
2018-11-01T12:20:20.857Z,14.93
2018-11-01T12:22:49.321Z,14.90
2018-11-01T12:25:17.738Z,14.77
2018-11-01T12:27:46.106Z,14.64
2018-11-01T12:30:14.463Z,14.60
2018-11-01T12:32:42.947Z,14.56
2018-11-01T12:35:11.673Z,14.57
2018-11-01T12:37:40.046Z,14.52
2018-11-01T12:40:10.202Z,14.51
2018-11-01T12:42:38.677Z,14.46
2018-11-01T12:45:08.730Z,14.44
2018-11-01T12:47:37.374Z,14.45
2018-11-01T12:50:08.053Z,14.47
2018-11-01T12:52:36.229Z,14.53
2018-11-01T12:55:04.646Z,14.50
2018-11-01T12:57:33.002Z,14.50
2018-11-01T13:00:01.330Z,14.53
2018-11-01T13:02:29.764Z,14.55
2018-11-01T13:04:58.102Z,14.56
2018-11-01T13:07:26.605Z,14.55
2018-11-01T13:09:54.983Z,14.51
2018-11-01T13:12:23.530Z,14.47
2018-11-01T13:14:51.838Z,14.46
2018-11-01T13:17:20.266Z,14.47
2018-11-01T13:19:48.658Z,14.50
2018-11-01T13:22:16.950Z,14.53
2018-11-01T13:24:45.379Z,14.60
2018-11-01T13:27:13.658Z,14.67
2018-11-01T13:29:42.009Z,14.67
2018-11-01T13:32:10.398Z,14.61
2018-11-01T13:34:38.866Z,14.59
2018-11-01T13:37:07.234Z,14.58
2018-11-01T13:39:35.956Z,14.59
2018-11-01T13:42:04.210Z,14.60
2018-11-01T13:44:32.678Z,14.61
2018-11-01T13:47:01.252Z,14.54
2018-11-01T13:49:29.532Z,14.44
2018-11-01T13:51:58.238Z,14.40
2018-11-01T13:54:26.675Z,14.39
2018-11-01T13:56:54.915Z,14.40
2018-11-01T13:59:23.246Z,14.38
2018-11-01T14:01:51.663Z,14.37
2018-11-01T14:04:20.205Z,14.34
2018-11-01T14:06:48.683Z,14.31
2018-11-01T14:09:17.101Z,14.26
2018-11-01T14:11:45.449Z,14.24
2018-11-01T14:14:14.129Z,14.24
2018-11-01T14:16:42.153Z,14.23
2018-11-01T14:19:10.485Z,14.23
2018-11-01T14:21:38.769Z,14.24
2018-11-01T14:24:07.442Z,14.17
2018-11-01T14:26:35.737Z,14.14
2018-11-01T14:29:04.114Z,14.10
2018-11-01T14:31:32.698Z,14.06
2018-11-01T14:34:01.078Z,13.99
2018-11-01T14:36:29.464Z,13.95
2018-11-01T14:38:57.834Z,13.88
2018-11-01T14:41:26.125Z,13.88
2018-11-01T14:43:54.407Z,13.93
2018-11-01T14:46:22.786Z,14.05
2018-11-01T14:48:51.142Z,14.13
2018-11-01T14:51:19.427Z,14.21
2018-11-01T14:53:48.037Z,14.27
2018-11-01T14:56:17.810Z,14.34
2018-11-01T14:58:46.339Z,14.38
2018-11-01T15:01:12.854Z,14.42
2018-11-01T15:03:41.266Z,14.48
2018-11-01T15:06:09.754Z,14.53
2018-11-01T15:08:38.044Z,14.58
2018-11-01T15:11:06.551Z,14.61
2018-11-01T15:13:34.922Z,14.65
2018-11-01T15:16:03.334Z,14.66
2018-11-01T15:18:31.700Z,14.67
2018-11-01T15:21:00.067Z,14.69
2018-11-01T15:23:28.451Z,14.70
2018-11-01T15:25:56.761Z,14.71
2018-11-01T15:28:25.090Z,14.70
2018-11-01T15:30:53.596Z,14.68
2018-11-01T15:33:21.939Z,14.63
2018-11-01T15:35:50.446Z,14.55
2018-11-01T15:38:18.822Z,14.52
2018-11-01T15:40:51.337Z,14.50
2018-11-01T15:43:19.683Z,14.46
2018-11-01T15:45:47.969Z,14.42
2018-11-01T15:48:16.303Z,14.38
2018-11-01T15:50:44.609Z,14.37
2018-11-01T15:53:12.893Z,14.35
2018-11-01T15:55:41.266Z,14.31
2018-11-01T15:58:09.634Z,14.27
2018-11-01T16:00:37.988Z,14.23
2018-11-01T16:03:06.382Z,14.15
2018-11-01T16:05:34.685Z,14.06
2018-11-01T16:08:03.351Z,13.96
2018-11-01T16:10:32.902Z,13.87
2018-11-01T16:13:01.544Z,13.79
2018-11-01T16:15:29.909Z,13.72
2018-11-01T16:17:58.409Z,13.63
2018-11-01T16:20:26.838Z,13.55
2018-11-01T16:22:55.254Z,13.48
2018-11-01T16:25:23.628Z,13.37
2018-11-01T16:27:52.045Z,13.25
2018-11-01T16:30:20.385Z,13.17
2018-11-01T16:32:48.774Z,13.14
2018-11-01T16:35:17.281Z,13.07
2018-11-01T16:37:45.623Z,13.09
2018-11-01T16:40:13.998Z,13.07
2018-11-01T16:42:42.515Z,13.02
2018-11-01T16:45:13.233Z,12.99
2018-11-01T16:47:41.785Z,12.89
2018-11-01T16:50:10.693Z,12.75
2018-11-01T16:52:40.130Z,12.67
2018-11-01T16:55:08.485Z,12.65
2018-11-01T16:57:36.807Z,12.63
2018-11-01T17:00:07.312Z,12.56
2018-11-01T17:02:35.759Z,12.52
2018-11-01T17:05:04.309Z,12.49
2018-11-01T17:07:32.613Z,12.43
2018-11-01T17:10:01.155Z,12.31
2018-11-01T17:12:29.702Z,12.24
2018-11-01T17:14:58.279Z,12.16
2018-11-01T17:17:26.635Z,12.06
2018-11-01T17:19:55.042Z,11.91
2018-11-01T17:22:23.469Z,11.78
2018-11-01T17:24:51.926Z,11.75
2018-11-01T17:27:20.302Z,11.74
2018-11-01T17:29:48.633Z,11.74
2018-11-01T17:32:17.013Z,11.76
2018-11-01T17:34:45.421Z,11.76
2018-11-01T17:37:13.894Z,11.77
2018-11-01T17:39:42.554Z,11.76
2018-11-01T17:42:11.017Z,11.68
2018-11-01T17:44:39.313Z,11.62
2018-11-01T17:47:07.815Z,11.55
2018-11-01T17:49:36.381Z,11.54
2018-11-01T17:52:04.686Z,11.51
2018-11-01T17:54:33.070Z,11.48
2018-11-01T17:57:02.047Z,11.39
2018-11-01T17:59:30.418Z,11.30
2018-11-01T18:01:58.825Z,11.26
2018-11-01T18:04:27.177Z,11.24
2018-11-01T18:06:55.670Z,11.29
2018-11-01T18:09:24.046Z,11.26
2018-11-01T18:11:52.622Z,11.22
2018-11-01T18:14:20.924Z,11.09
2018-11-01T18:16:49.195Z,10.99
2018-11-01T18:19:17.686Z,10.93
2018-11-01T18:21:46.046Z,10.94
2018-11-01T18:24:14.414Z,10.87
2018-11-01T18:26:42.819Z,10.80
2018-11-01T18:29:11.156Z,10.70
2018-11-01T18:31:39.438Z,10.66
2018-11-01T18:34:07.847Z,10.70
2018-11-01T18:36:36.261Z,10.71
2018-11-01T18:39:05.790Z,10.69
2018-11-01T18:41:34.037Z,10.66
2018-11-01T18:44:02.321Z,10.61
2018-11-01T18:46:30.726Z,10.59
2018-11-01T18:48:59.150Z,10.57
2018-11-01T18:51:27.604Z,10.60
2018-11-01T18:53:56.089Z,10.62
2018-11-01T18:56:24.345Z,10.60
2018-11-01T18:58:53.474Z,10.59
2018-11-01T19:01:21.774Z,10.59
2018-11-01T19:03:50.113Z,10.61
2018-11-01T19:06:18.450Z,10.65
2018-11-01T19:08:47.169Z,10.66
2018-11-01T19:11:15.583Z,10.63
2018-11-01T19:13:45.357Z,10.59
2018-11-01T19:16:13.643Z,10.55
2018-11-01T19:18:42.479Z,10.47
2018-11-01T19:21:11.009Z,10.39
2018-11-01T19:23:39.369Z,10.34
2018-11-01T19:26:07.769Z,10.24
2018-11-01T19:28:36.507Z,10.16
2018-11-01T19:31:05.125Z,10.07
2018-11-01T19:33:34.202Z,9.92
2018-11-01T19:36:02.775Z,9.84
2018-11-01T19:38:31.089Z,9.81
2018-11-01T19:40:59.570Z,9.84
2018-11-01T19:43:28.105Z,9.89
2018-11-01T19:45:56.423Z,9.92
2018-11-01T19:48:25.247Z,9.95
2018-11-01T19:50:53.470Z,9.94
2018-11-01T19:53:21.971Z,9.87
2018-11-01T19:55:50.381Z,9.84
2018-11-01T19:58:18.682Z,9.82
2018-11-01T20:00:46.985Z,9.77
2018-11-01T20:03:15.371Z,9.77
2018-11-01T20:05:43.766Z,9.68
2018-11-01T20:08:12.265Z,9.69
2018-11-01T20:10:40.710Z,9.67
2018-11-01T20:13:09.260Z,9.66
2018-11-01T20:15:37.561Z,9.62
2018-11-01T20:18:06.116Z,9.45
2018-11-01T20:20:34.452Z,9.40
2018-11-01T20:23:02.832Z,9.37
2018-11-01T20:25:32.102Z,9.40
2018-11-01T20:28:00.607Z,9.40
2018-11-01T20:30:29.022Z,9.44
2018-11-01T20:32:57.351Z,9.49
2018-11-01T20:35:25.638Z,9.47
2018-11-01T20:37:53.981Z,9.45
2018-11-01T20:40:22.365Z,9.42
2018-11-01T20:42:50.799Z,9.35
2018-11-01T20:45:19.227Z,9.30
2018-11-01T20:47:47.640Z,9.31
2018-11-01T20:50:16.136Z,9.35
2018-11-01T20:52:44.596Z,9.38
2018-11-01T20:55:13.748Z,9.39
2018-11-01T20:57:42.309Z,9.38
2018-11-01T21:00:14.171Z,9.32
2018-11-01T21:02:42.899Z,9.28
2018-11-01T21:05:11.599Z,9.28
2018-11-01T21:07:40.325Z,9.21
2018-11-01T21:10:09.674Z,9.11
2018-11-01T21:12:38.851Z,9.01
2018-11-01T21:15:09.098Z,8.97
2018-11-01T21:17:37.504Z,8.97
2018-11-01T21:20:06.318Z,8.98
2018-11-01T21:22:34.606Z,8.95
2018-11-01T21:25:03.821Z,8.96
2018-11-01T21:27:34.652Z,9.01
2018-11-01T21:30:03.178Z,9.02
2018-11-01T21:32:31.570Z,9.01
2018-11-01T21:34:59.885Z,8.99
2018-11-01T21:37:28.368Z,8.96
2018-11-01T21:39:56.794Z,8.90
2018-11-01T21:42:25.144Z,8.90
2018-11-01T21:44:54.350Z,8.88
2018-11-01T21:47:22.865Z,8.86
2018-11-01T21:49:51.193Z,8.86
2018-11-01T21:52:19.586Z,8.84
2018-11-01T21:54:48.003Z,8.87
2018-11-01T21:57:17.822Z,8.90
2018-11-01T21:59:46.157Z,8.90
2018-11-01T22:02:16.190Z,8.90
2018-11-01T22:04:44.632Z,8.89
2018-11-01T22:07:13.759Z,8.92
2018-11-01T22:09:42.155Z,8.95
2018-11-01T22:12:10.391Z,8.97
2018-11-01T22:14:40.542Z,8.91
2018-11-01T22:17:08.944Z,8.90
2018-11-01T22:19:37.235Z,8.89
2018-11-01T22:22:05.968Z,8.80
2018-11-01T22:24:34.476Z,8.68
2018-11-01T22:27:02.884Z,8.58
2018-11-01T22:29:31.167Z,8.47
2018-11-01T22:31:59.493Z,8.34
2018-11-01T22:34:30.393Z,8.24
2018-11-01T22:36:58.805Z,8.17
2018-11-01T22:39:27.098Z,8.00
2018-11-01T22:41:55.522Z,7.95
2018-11-01T22:44:23.807Z,7.96
2018-11-01T22:46:52.202Z,7.92
2018-11-01T22:49:20.478Z,7.89
2018-11-01T22:51:48.782Z,7.88
2018-11-01T22:54:17.170Z,7.92
2018-11-01T22:56:45.514Z,7.99
2018-11-01T22:59:14.738Z,8.03
2018-11-01T23:01:43.160Z,8.04
2018-11-01T23:04:11.465Z,8.08
2018-11-01T23:06:41.094Z,8.09
2018-11-01T23:09:10.602Z,8.11
2018-11-01T23:11:40.782Z,8.11
2018-11-01T23:14:09.196Z,8.10
2018-11-01T23:16:38.675Z,8.09
2018-11-01T23:19:07.087Z,8.14
2018-11-01T23:21:35.448Z,8.18
2018-11-01T23:24:03.910Z,8.19
2018-11-01T23:26:32.483Z,8.19
2018-11-01T23:29:00.783Z,8.17
2018-11-01T23:31:29.765Z,8.16
2018-11-01T23:33:58.031Z,8.11
2018-11-01T23:36:25.620Z,8.11
2018-11-01T23:38:59.313Z,8.15
2018-11-01T23:41:32.777Z,8.19
2018-11-01T23:44:06.563Z,8.19
2018-11-01T23:46:41.448Z,8.19
2018-11-01T23:49:13.360Z,8.20
2018-11-01T23:51:42.259Z,8.18
2018-11-01T23:54:10.572Z,8.17
2018-11-01T23:56:38.976Z,8.13
2018-11-01T23:59:07.321Z,8.07
